sensor_id;sensor_type;location;lat;lon;timestamp;pressure;altitude;pressure_sealevel;temperature;humidity
9935;BME280;5006;41.828;23.478;2023-04-30T00:00:34;90028.66;;;13.51;64.77
9935;BME280;5006;41.828;23.478;2023-04-30T00:01:41;90032.19;;;13.48;65.50
9935;BME280;5006;41.828;23.478;2023-04-30T00:02:46;90028.63;;;13.55;65.47
9935;BME280;5006;41.828;23.478;2023-04-30T00:03:51;90021.13;;;13.43;66.05
9935;BME280;5006;41.828;23.478;2023-04-30T00:04:57;90023.34;;;12.98;67.21
9935;BME280;5006;41.828;23.478;2023-04-30T00:06:02;90024.84;;;13.49;66.17
9935;BME280;5006;41.828;23.478;2023-04-30T00:07:09;90026.59;;;11.60;69.64
9935;BME280;5006;41.828;23.478;2023-04-30T00:08:16;90020.22;;;11.40;71.79
9935;BME280;5006;41.828;23.478;2023-04-30T00:09:20;90024.09;;;11.35;73.55
9935;BME280;5006;41.828;23.478;2023-04-30T00:10:27;90019.72;;;11.52;73.68
9935;BME280;5006;41.828;23.478;2023-04-30T00:11:32;90014.81;;;13.03;68.19
9935;BME280;5006;41.828;23.478;2023-04-30T00:12:38;90012.19;;;13.23;67.40
9935;BME280;5006;41.828;23.478;2023-04-30T00:13:43;90015.84;;;13.59;65.90
9935;BME280;5006;41.828;23.478;2023-04-30T00:14:49;90015.50;;;13.07;66.74
9935;BME280;5006;41.828;23.478;2023-04-30T00:15:55;90012.88;;;13.04;66.57
9935;BME280;5006;41.828;23.478;2023-04-30T00:17:01;90019.75;;;12.79;67.06
9935;BME280;5006;41.828;23.478;2023-04-30T00:18:06;90012.69;;;13.41;66.30
9935;BME280;5006;41.828;23.478;2023-04-30T00:19:12;90013.69;;;13.50;66.13
9935;BME280;5006;41.828;23.478;2023-04-30T00:20:16;90008.88;;;13.61;64.61
9935;BME280;5006;41.828;23.478;2023-04-30T00:21:23;90009.16;;;13.67;63.95
9935;BME280;5006;41.828;23.478;2023-04-30T00:22:29;90006.63;;;13.33;64.79
9935;BME280;5006;41.828;23.478;2023-04-30T00:23:37;90006.13;;;13.42;65.20
9935;BME280;5006;41.828;23.478;2023-04-30T00:24:42;90008.81;;;13.42;65.49
9935;BME280;5006;41.828;23.478;2023-04-30T00:25:47;90010.91;;;13.08;66.48
9935;BME280;5006;41.828;23.478;2023-04-30T00:26:53;90012.84;;;13.30;65.62
9935;BME280;5006;41.828;23.478;2023-04-30T00:27:59;90013.38;;;12.69;67.10
9935;BME280;5006;41.828;23.478;2023-04-30T00:29:04;90009.44;;;13.03;66.52
9935;BME280;5006;41.828;23.478;2023-04-30T00:30:11;90018.19;;;13.07;66.88
9935;BME280;5006;41.828;23.478;2023-04-30T00:31:16;90015.72;;;12.93;67.85
9935;BME280;5006;41.828;23.478;2023-04-30T00:32:22;90016.06;;;12.95;67.33
9935;BME280;5006;41.828;23.478;2023-04-30T00:33:27;90018.88;;;13.38;66.78
9935;BME280;5006;41.828;23.478;2023-04-30T00:34:33;90021.53;;;13.84;65.54
9935;BME280;5006;41.828;23.478;2023-04-30T00:35:38;90025.97;;;13.74;65.46
9935;BME280;5006;41.828;23.478;2023-04-30T00:36:44;90022.16;;;13.72;65.79
9935;BME280;5006;41.828;23.478;2023-04-30T00:37:51;90023.56;;;13.80;65.10
9935;BME280;5006;41.828;23.478;2023-04-30T00:38:57;90022.84;;;13.53;65.45
9935;BME280;5006;41.828;23.478;2023-04-30T00:40:03;90016.41;;;13.47;65.90
9935;BME280;5006;41.828;23.478;2023-04-30T00:41:10;90009.50;;;13.46;65.29
9935;BME280;5006;41.828;23.478;2023-04-30T00:42:17;90009.81;;;13.02;67.55
9935;BME280;5006;41.828;23.478;2023-04-30T00:43:22;90013.38;;;13.22;66.40
9935;BME280;5006;41.828;23.478;2023-04-30T00:44:28;90010.03;;;13.37;66.34
9935;BME280;5006;41.828;23.478;2023-04-30T00:45:33;90012.44;;;13.32;65.89
9935;BME280;5006;41.828;23.478;2023-04-30T00:46:38;90015.22;;;13.25;65.95
9935;BME280;5006;41.828;23.478;2023-04-30T00:47:44;90014.59;;;13.17;66.04
9935;BME280;5006;41.828;23.478;2023-04-30T00:48:50;90010.44;;;13.13;66.32
9935;BME280;5006;41.828;23.478;2023-04-30T00:49:55;90010.56;;;12.76;67.56
9935;BME280;5006;41.828;23.478;2023-04-30T00:51:01;90013.16;;;12.83;67.78
9935;BME280;5006;41.828;23.478;2023-04-30T00:52:08;90017.47;;;13.30;67.20
9935;BME280;5006;41.828;23.478;2023-04-30T00:53:16;90025.63;;;13.49;65.52
9935;BME280;5006;41.828;23.478;2023-04-30T00:54:22;90020.34;;;13.42;66.13
9935;BME280;5006;41.828;23.478;2023-04-30T00:55:29;90016.31;;;13.31;65.67
9935;BME280;5006;41.828;23.478;2023-04-30T00:56:34;90015.97;;;13.02;65.63
9935;BME280;5006;41.828;23.478;2023-04-30T00:57:41;90017.75;;;13.12;65.46
9935;BME280;5006;41.828;23.478;2023-04-30T00:58:46;90010.28;;;13.23;65.67
9935;BME280;5006;41.828;23.478;2023-04-30T00:59:55;90007.94;;;12.99;66.89
9935;BME280;5006;41.828;23.478;2023-04-30T01:01:01;90011.13;;;12.64;67.08
9935;BME280;5006;41.828;23.478;2023-04-30T01:02:08;90006.25;;;12.56;68.50
9935;BME280;5006;41.828;23.478;2023-04-30T01:03:14;90001.91;;;12.65;67.62
9935;BME280;5006;41.828;23.478;2023-04-30T01:04:21;90001.47;;;12.67;67.70
9935;BME280;5006;41.828;23.478;2023-04-30T01:05:26;89999.06;;;13.02;67.27
9935;BME280;5006;41.828;23.478;2023-04-30T01:06:32;90004.09;;;13.00;67.37
9935;BME280;5006;41.828;23.478;2023-04-30T01:07:38;90006.13;;;13.19;67.67
9935;BME280;5006;41.828;23.478;2023-04-30T01:08:50;90007.38;;;13.11;67.76
9935;BME280;5006;41.828;23.478;2023-04-30T01:09:55;90010.56;;;13.29;66.88
9935;BME280;5006;41.828;23.478;2023-04-30T01:11:09;90012.66;;;13.18;66.34
9935;BME280;5006;41.828;23.478;2023-04-30T01:12:19;90010.88;;;12.82;67.25
9935;BME280;5006;41.828;23.478;2023-04-30T01:13:37;90009.00;;;12.79;67.89
9935;BME280;5006;41.828;23.478;2023-04-30T01:14:52;90010.38;;;12.90;67.76
9935;BME280;5006;41.828;23.478;2023-04-30T01:16:06;90005.19;;;13.29;66.40
9935;BME280;5006;41.828;23.478;2023-04-30T01:17:16;90007.13;;;13.02;68.34
9935;BME280;5006;41.828;23.478;2023-04-30T01:18:30;90005.41;;;13.61;66.12
9935;BME280;5006;41.828;23.478;2023-04-30T01:19:40;90002.19;;;13.46;66.15
9935;BME280;5006;41.828;23.478;2023-04-30T01:20:49;90003.28;;;13.26;65.75
9935;BME280;5006;41.828;23.478;2023-04-30T01:21:58;89995.44;;;13.12;66.67
9935;BME280;5006;41.828;23.478;2023-04-30T01:23:13;89992.41;;;13.10;67.65
9935;BME280;5006;41.828;23.478;2023-04-30T01:24:36;90000.66;;;13.45;66.07
9935;BME280;5006;41.828;23.478;2023-04-30T01:25:55;89999.13;;;13.67;65.36
9935;BME280;5006;41.828;23.478;2023-04-30T01:27:14;90004.31;;;13.35;67.16
9935;BME280;5006;41.828;23.478;2023-04-30T01:28:31;90004.16;;;13.19;66.52
9935;BME280;5006;41.828;23.478;2023-04-30T01:29:38;90000.53;;;12.80;67.23
9935;BME280;5006;41.828;23.478;2023-04-30T01:30:46;90010.28;;;12.97;68.00
9935;BME280;5006;41.828;23.478;2023-04-30T01:31:53;89999.31;;;13.11;67.90
9935;BME280;5006;41.828;23.478;2023-04-30T01:32:58;90000.16;;;13.31;67.26
9935;BME280;5006;41.828;23.478;2023-04-30T01:34:05;90003.41;;;12.96;67.57
9935;BME280;5006;41.828;23.478;2023-04-30T01:35:10;90001.53;;;12.93;68.92
9935;BME280;5006;41.828;23.478;2023-04-30T01:36:38;89993.16;;;13.33;66.98
9935;BME280;5006;41.828;23.478;2023-04-30T01:37:52;89999.91;;;13.45;66.41
9935;BME280;5006;41.828;23.478;2023-04-30T01:39:08;89997.75;;;13.13;67.72
9935;BME280;5006;41.828;23.478;2023-04-30T01:40:23;90005.72;;;12.94;68.89
9935;BME280;5006;41.828;23.478;2023-04-30T01:41:34;90005.38;;;13.15;66.64
9935;BME280;5006;41.828;23.478;2023-04-30T01:42:44;90001.91;;;12.65;68.93
9935;BME280;5006;41.828;23.478;2023-04-30T01:44:00;90004.13;;;12.70;67.55
9935;BME280;5006;41.828;23.478;2023-04-30T01:45:21;90003.19;;;12.84;68.36
9935;BME280;5006;41.828;23.478;2023-04-30T01:46:33;90000.19;;;12.78;68.31
9935;BME280;5006;41.828;23.478;2023-04-30T01:47:46;90001.28;;;12.81;69.07
9935;BME280;5006;41.828;23.478;2023-04-30T01:49:03;89992.50;;;12.77;68.34
9935;BME280;5006;41.828;23.478;2023-04-30T01:50:21;89996.25;;;12.56;68.62
9935;BME280;5006;41.828;23.478;2023-04-30T01:51:33;89999.69;;;12.57;70.20
9935;BME280;5006;41.828;23.478;2023-04-30T01:52:45;90000.94;;;13.05;68.71
9935;BME280;5006;41.828;23.478;2023-04-30T01:53:56;89995.84;;;13.33;67.14
9935;BME280;5006;41.828;23.478;2023-04-30T01:55:06;89996.28;;;13.09;68.12
9935;BME280;5006;41.828;23.478;2023-04-30T01:56:17;89992.22;;;12.98;67.85
9935;BME280;5006;41.828;23.478;2023-04-30T01:57:28;89993.31;;;13.00;67.51
9935;BME280;5006;41.828;23.478;2023-04-30T01:58:37;89991.03;;;12.72;69.76
9935;BME280;5006;41.828;23.478;2023-04-30T01:59:45;89994.75;;;12.55;70.50
9935;BME280;5006;41.828;23.478;2023-04-30T02:00:51;89990.38;;;12.05;71.71
9935;BME280;5006;41.828;23.478;2023-04-30T02:01:57;89990.00;;;12.36;72.26
9935;BME280;5006;41.828;23.478;2023-04-30T02:03:03;89988.25;;;12.79;69.70
9935;BME280;5006;41.828;23.478;2023-04-30T02:04:08;89990.06;;;12.86;69.28
9935;BME280;5006;41.828;23.478;2023-04-30T02:05:14;89996.50;;;12.91;67.94
9935;BME280;5006;41.828;23.478;2023-04-30T02:06:20;89992.84;;;12.79;68.11
9935;BME280;5006;41.828;23.478;2023-04-30T02:07:38;89985.91;;;12.81;68.25
9935;BME280;5006;41.828;23.478;2023-04-30T02:08:45;89992.28;;;12.64;68.61
9935;BME280;5006;41.828;23.478;2023-04-30T02:09:51;89989.31;;;12.59;68.68
9935;BME280;5006;41.828;23.478;2023-04-30T02:10:56;89995.25;;;12.73;68.95
9935;BME280;5006;41.828;23.478;2023-04-30T02:12:02;89993.94;;;12.28;71.18
9935;BME280;5006;41.828;23.478;2023-04-30T02:13:08;89989.88;;;12.47;71.00
9935;BME280;5006;41.828;23.478;2023-04-30T02:14:13;89985.50;;;13.09;68.42
9935;BME280;5006;41.828;23.478;2023-04-30T02:15:20;89989.97;;;13.19;67.30
9935;BME280;5006;41.828;23.478;2023-04-30T02:16:26;89992.16;;;12.75;68.07
9935;BME280;5006;41.828;23.478;2023-04-30T02:17:32;89989.22;;;12.92;68.23
9935;BME280;5006;41.828;23.478;2023-04-30T02:18:39;89990.38;;;12.65;70.00
9935;BME280;5006;41.828;23.478;2023-04-30T02:19:45;89992.03;;;12.82;68.23
9935;BME280;5006;41.828;23.478;2023-04-30T02:20:50;89984.94;;;12.68;68.73
9935;BME280;5006;41.828;23.478;2023-04-30T02:21:56;89983.88;;;12.62;68.84
9935;BME280;5006;41.828;23.478;2023-04-30T02:23:01;89994.13;;;12.71;69.29
9935;BME280;5006;41.828;23.478;2023-04-30T02:24:07;89990.09;;;12.56;69.47
9935;BME280;5006;41.828;23.478;2023-04-30T02:25:12;89990.00;;;12.89;68.08
9935;BME280;5006;41.828;23.478;2023-04-30T02:26:18;89988.41;;;12.95;67.91
9935;BME280;5006;41.828;23.478;2023-04-30T02:27:24;89986.34;;;12.76;68.57
9935;BME280;5006;41.828;23.478;2023-04-30T02:28:30;89984.63;;;12.36;69.71
9935;BME280;5006;41.828;23.478;2023-04-30T02:29:36;89989.88;;;12.73;69.10
9935;BME280;5006;41.828;23.478;2023-04-30T02:30:43;89986.50;;;12.92;67.43
9935;BME280;5006;41.828;23.478;2023-04-30T02:31:48;89987.25;;;12.92;67.18
9935;BME280;5006;41.828;23.478;2023-04-30T02:32:54;89986.66;;;12.82;67.14
9935;BME280;5006;41.828;23.478;2023-04-30T02:33:59;89982.84;;;12.53;67.75
9935;BME280;5006;41.828;23.478;2023-04-30T02:35:05;89976.91;;;12.38;68.63
9935;BME280;5006;41.828;23.478;2023-04-30T02:36:10;89983.97;;;12.55;68.79
9935;BME280;5006;41.828;23.478;2023-04-30T02:37:16;89981.41;;;12.45;67.90
9935;BME280;5006;41.828;23.478;2023-04-30T02:38:22;89987.22;;;12.43;68.77
9935;BME280;5006;41.828;23.478;2023-04-30T02:39:27;89974.19;;;11.82;71.37
9935;BME280;5006;41.828;23.478;2023-04-30T02:40:33;89984.03;;;11.92;72.03
9935;BME280;5006;41.828;23.478;2023-04-30T02:41:39;89981.19;;;12.36;69.29
9935;BME280;5006;41.828;23.478;2023-04-30T02:42:44;89980.00;;;12.63;68.90
9935;BME280;5006;41.828;23.478;2023-04-30T02:43:50;89980.25;;;12.19;68.89
9935;BME280;5006;41.828;23.478;2023-04-30T02:44:56;89979.75;;;12.28;68.70
9935;BME280;5006;41.828;23.478;2023-04-30T02:46:03;89977.63;;;12.12;69.49
9935;BME280;5006;41.828;23.478;2023-04-30T02:47:09;89980.50;;;11.98;71.03
9935;BME280;5006;41.828;23.478;2023-04-30T02:48:15;89985.13;;;11.98;70.18
9935;BME280;5006;41.828;23.478;2023-04-30T02:49:20;89985.22;;;11.87;70.44
9935;BME280;5006;41.828;23.478;2023-04-30T02:50:26;89981.25;;;11.99;70.05
9935;BME280;5006;41.828;23.478;2023-04-30T02:51:31;89985.81;;;11.72;71.54
9935;BME280;5006;41.828;23.478;2023-04-30T02:52:37;89992.84;;;11.59;72.09
9935;BME280;5006;41.828;23.478;2023-04-30T02:53:42;89987.19;;;11.83;70.17
9935;BME280;5006;41.828;23.478;2023-04-30T02:54:48;89983.31;;;11.88;69.98
9935;BME280;5006;41.828;23.478;2023-04-30T02:55:54;89988.03;;;11.77;70.90
9935;BME280;5006;41.828;23.478;2023-04-30T02:57:00;89990.31;;;11.82;72.25
9935;BME280;5006;41.828;23.478;2023-04-30T02:58:05;89988.84;;;11.74;71.38
9935;BME280;5006;41.828;23.478;2023-04-30T02:59:11;89997.44;;;12.25;71.07
9935;BME280;5006;41.828;23.478;2023-04-30T03:00:16;89991.34;;;12.21;70.30
9935;BME280;5006;41.828;23.478;2023-04-30T03:01:24;89998.38;;;12.12;70.62
9935;BME280;5006;41.828;23.478;2023-04-30T03:02:29;89998.53;;;12.01;71.29
9935;BME280;5006;41.828;23.478;2023-04-30T03:03:35;89992.41;;;11.97;71.36
9935;BME280;5006;41.828;23.478;2023-04-30T03:04:40;89999.91;;;12.13;69.71
9935;BME280;5006;41.828;23.478;2023-04-30T03:05:46;90001.03;;;12.15;68.77
9935;BME280;5006;41.828;23.478;2023-04-30T03:06:51;90000.41;;;12.34;68.62
9935;BME280;5006;41.828;23.478;2023-04-30T03:07:57;89998.38;;;12.42;68.56
9935;BME280;5006;41.828;23.478;2023-04-30T03:09:02;90001.22;;;12.31;68.76
9935;BME280;5006;41.828;23.478;2023-04-30T03:10:09;89996.00;;;12.17;68.86
9935;BME280;5006;41.828;23.478;2023-04-30T03:11:14;89993.50;;;12.33;69.02
9935;BME280;5006;41.828;23.478;2023-04-30T03:12:21;90001.22;;;12.31;68.84
9935;BME280;5006;41.828;23.478;2023-04-30T03:13:26;90004.22;;;12.37;68.76
9935;BME280;5006;41.828;23.478;2023-04-30T03:14:32;90006.53;;;11.68;71.18
9935;BME280;5006;41.828;23.478;2023-04-30T03:15:36;89997.59;;;12.11;69.60
9935;BME280;5006;41.828;23.478;2023-04-30T03:16:44;90000.06;;;12.29;69.30
9935;BME280;5006;41.828;23.478;2023-04-30T03:17:49;89998.78;;;12.10;69.36
9935;BME280;5006;41.828;23.478;2023-04-30T03:18:56;89999.94;;;12.09;68.59
9935;BME280;5006;41.828;23.478;2023-04-30T03:20:01;89994.53;;;11.79;69.22
9935;BME280;5006;41.828;23.478;2023-04-30T03:21:07;89995.47;;;11.22;71.03
9935;BME280;5006;41.828;23.478;2023-04-30T03:22:12;89994.34;;;11.19;72.50
9935;BME280;5006;41.828;23.478;2023-04-30T03:23:18;90003.38;;;11.39;71.52
9935;BME280;5006;41.828;23.478;2023-04-30T03:24:23;89994.81;;;11.51;71.53
9935;BME280;5006;41.828;23.478;2023-04-30T03:25:30;89999.56;;;10.93;74.46
9935;BME280;5006;41.828;23.478;2023-04-30T03:26:34;89997.34;;;11.25;73.71
9935;BME280;5006;41.828;23.478;2023-04-30T03:27:41;90002.16;;;11.84;71.13
9935;BME280;5006;41.828;23.478;2023-04-30T03:28:46;89994.59;;;11.72;71.45
9935;BME280;5006;41.828;23.478;2023-04-30T03:29:53;90004.78;;;11.91;70.95
9935;BME280;5006;41.828;23.478;2023-04-30T03:30:58;90001.06;;;11.78;71.62
9935;BME280;5006;41.828;23.478;2023-04-30T03:32:05;90003.81;;;12.05;70.56
9935;BME280;5006;41.828;23.478;2023-04-30T03:33:10;90008.97;;;11.92;69.96
9935;BME280;5006;41.828;23.478;2023-04-30T03:34:16;90009.94;;;12.09;70.34
9935;BME280;5006;41.828;23.478;2023-04-30T03:35:22;90010.34;;;11.74;71.63
9935;BME280;5006;41.828;23.478;2023-04-30T03:36:27;90002.91;;;11.88;72.33
9935;BME280;5006;41.828;23.478;2023-04-30T03:37:33;90003.72;;;11.41;73.22
9935;BME280;5006;41.828;23.478;2023-04-30T03:38:39;90006.19;;;11.66;73.51
9935;BME280;5006;41.828;23.478;2023-04-30T03:39:45;90007.16;;;11.82;71.69
9935;BME280;5006;41.828;23.478;2023-04-30T03:40:50;89997.28;;;12.06;70.89
9935;BME280;5006;41.828;23.478;2023-04-30T03:41:56;90007.63;;;11.77;71.84
9935;BME280;5006;41.828;23.478;2023-04-30T03:43:01;90017.47;;;12.21;70.27
9935;BME280;5006;41.828;23.478;2023-04-30T03:44:07;90007.91;;;12.46;69.66
9935;BME280;5006;41.828;23.478;2023-04-30T03:45:19;90018.81;;;12.36;69.41
9935;BME280;5006;41.828;23.478;2023-04-30T03:46:25;90018.28;;;12.48;68.89
9935;BME280;5006;41.828;23.478;2023-04-30T03:47:32;90018.38;;;12.41;68.57
9935;BME280;5006;41.828;23.478;2023-04-30T03:48:39;90021.09;;;12.37;68.02
9935;BME280;5006;41.828;23.478;2023-04-30T03:49:44;90018.81;;;12.36;68.71
9935;BME280;5006;41.828;23.478;2023-04-30T03:50:53;90024.31;;;12.25;69.05
9935;BME280;5006;41.828;23.478;2023-04-30T03:51:58;90025.06;;;12.29;68.89
9935;BME280;5006;41.828;23.478;2023-04-30T03:53:05;90035.47;;;12.24;68.86
9935;BME280;5006;41.828;23.478;2023-04-30T03:54:10;90025.81;;;11.96;70.50
9935;BME280;5006;41.828;23.478;2023-04-30T03:55:16;90025.16;;;12.19;69.06
9935;BME280;5006;41.828;23.478;2023-04-30T03:56:21;90026.00;;;12.12;69.30
9935;BME280;5006;41.828;23.478;2023-04-30T03:57:27;90031.00;;;12.14;68.83
9935;BME280;5006;41.828;23.478;2023-04-30T03:58:33;90032.19;;;12.09;69.28
9935;BME280;5006;41.828;23.478;2023-04-30T03:59:40;90034.69;;;11.56;71.54
9935;BME280;5006;41.828;23.478;2023-04-30T04:00:46;90030.16;;;11.87;72.13
9935;BME280;5006;41.828;23.478;2023-04-30T04:01:52;90028.50;;;11.96;71.36
9935;BME280;5006;41.828;23.478;2023-04-30T04:02:59;90038.31;;;11.76;71.93
9935;BME280;5006;41.828;23.478;2023-04-30T04:04:06;90032.19;;;11.76;71.42
9935;BME280;5006;41.828;23.478;2023-04-30T04:05:11;90040.22;;;11.79;71.34
9935;BME280;5006;41.828;23.478;2023-04-30T04:06:18;90028.81;;;12.02;71.44
9935;BME280;5006;41.828;23.478;2023-04-30T04:07:24;90034.50;;;12.11;71.16
9935;BME280;5006;41.828;23.478;2023-04-30T04:08:31;90037.34;;;11.97;73.00
9935;BME280;5006;41.828;23.478;2023-04-30T04:09:36;90030.47;;;12.26;72.36
9935;BME280;5006;41.828;23.478;2023-04-30T04:10:42;90028.38;;;12.40;71.20
9935;BME280;5006;41.828;23.478;2023-04-30T04:11:48;90033.38;;;12.68;69.78
9935;BME280;5006;41.828;23.478;2023-04-30T04:12:54;90030.72;;;12.65;70.53
9935;BME280;5006;41.828;23.478;2023-04-30T04:13:59;90032.75;;;12.57;70.99
9935;BME280;5006;41.828;23.478;2023-04-30T04:15:06;90036.47;;;12.37;72.76
9935;BME280;5006;41.828;23.478;2023-04-30T04:16:11;90034.53;;;12.67;71.02
9935;BME280;5006;41.828;23.478;2023-04-30T04:17:17;90035.16;;;12.78;70.90
9935;BME280;5006;41.828;23.478;2023-04-30T04:18:24;90038.56;;;12.82;70.21
9935;BME280;5006;41.828;23.478;2023-04-30T04:19:31;90041.16;;;13.15;69.97
9935;BME280;5006;41.828;23.478;2023-04-30T04:20:36;90031.63;;;13.34;69.38
9935;BME280;5006;41.828;23.478;2023-04-30T04:21:42;90042.53;;;13.50;68.33
9935;BME280;5006;41.828;23.478;2023-04-30T04:22:52;90033.16;;;13.58;67.83
9935;BME280;5006;41.828;23.478;2023-04-30T04:23:58;90035.06;;;13.34;68.28
9935;BME280;5006;41.828;23.478;2023-04-30T04:25:07;90035.16;;;13.54;68.13
9935;BME280;5006;41.828;23.478;2023-04-30T04:26:13;90039.88;;;13.69;68.03
9935;BME280;5006;41.828;23.478;2023-04-30T04:27:20;90039.25;;;13.85;67.79
9935;BME280;5006;41.828;23.478;2023-04-30T04:28:26;90031.63;;;13.80;68.18
9935;BME280;5006;41.828;23.478;2023-04-30T04:29:32;90034.44;;;13.73;68.62
9935;BME280;5006;41.828;23.478;2023-04-30T04:30:36;90033.38;;;13.90;68.95
9935;BME280;5006;41.828;23.478;2023-04-30T04:31:44;90046.50;;;13.88;69.03
9935;BME280;5006;41.828;23.478;2023-04-30T04:32:49;90042.50;;;13.96;69.10
9935;BME280;5006;41.828;23.478;2023-04-30T04:34:01;90046.63;;;13.35;70.59
9935;BME280;5006;41.828;23.478;2023-04-30T04:35:07;90049.78;;;13.30;71.79
9935;BME280;5006;41.828;23.478;2023-04-30T04:36:14;90050.97;;;13.29;72.20
9935;BME280;5006;41.828;23.478;2023-04-30T04:37:20;90055.22;;;13.26;72.07
9935;BME280;5006;41.828;23.478;2023-04-30T04:38:26;90055.31;;;13.19;73.27
9935;BME280;5006;41.828;23.478;2023-04-30T04:39:30;90038.66;;;13.51;72.10
9935;BME280;5006;41.828;23.478;2023-04-30T04:40:37;90047.81;;;13.57;72.87
9935;BME280;5006;41.828;23.478;2023-04-30T04:41:42;90051.78;;;13.72;72.07
9935;BME280;5006;41.828;23.478;2023-04-30T04:42:48;90044.41;;;13.53;72.11
9935;BME280;5006;41.828;23.478;2023-04-30T04:43:53;90055.22;;;13.26;74.64
9935;BME280;5006;41.828;23.478;2023-04-30T04:44:59;90051.25;;;13.34;73.77
9935;BME280;5006;41.828;23.478;2023-04-30T04:46:06;90062.13;;;13.27;73.33
9935;BME280;5006;41.828;23.478;2023-04-30T04:47:13;90054.03;;;13.96;73.64
9935;BME280;5006;41.828;23.478;2023-04-30T04:48:18;90051.41;;;14.35;73.16
9935;BME280;5006;41.828;23.478;2023-04-30T04:49:25;90059.28;;;15.20;69.76
9935;BME280;5006;41.828;23.478;2023-04-30T04:50:31;90056.25;;;14.83;69.96
9935;BME280;5006;41.828;23.478;2023-04-30T04:51:37;90062.97;;;14.55;70.31
9935;BME280;5006;41.828;23.478;2023-04-30T04:52:43;90066.34;;;14.59;69.02
9935;BME280;5006;41.828;23.478;2023-04-30T04:53:50;90066.84;;;14.35;69.91
9935;BME280;5006;41.828;23.478;2023-04-30T04:54:56;90062.47;;;14.41;72.16
9935;BME280;5006;41.828;23.478;2023-04-30T04:56:02;90062.53;;;14.96;71.22
9935;BME280;5006;41.828;23.478;2023-04-30T04:57:07;90071.13;;;14.71;70.58
9935;BME280;5006;41.828;23.478;2023-04-30T04:58:13;90070.16;;;15.16;69.82
9935;BME280;5006;41.828;23.478;2023-04-30T04:59:17;90058.56;;;15.35;67.91
9935;BME280;5006;41.828;23.478;2023-04-30T05:00:26;90061.31;;;16.12;66.63
9935;BME280;5006;41.828;23.478;2023-04-30T05:01:32;90058.97;;;15.98;65.63
9935;BME280;5006;41.828;23.478;2023-04-30T05:02:38;90058.94;;;16.14;65.17
9935;BME280;5006;41.828;23.478;2023-04-30T05:03:44;90050.09;;;16.70;63.50
9935;BME280;5006;41.828;23.478;2023-04-30T05:04:51;90053.63;;;16.96;62.74
9935;BME280;5006;41.828;23.478;2023-04-30T05:05:57;90052.22;;;16.91;62.13
9935;BME280;5006;41.828;23.478;2023-04-30T05:07:04;90054.06;;;16.53;63.33
9935;BME280;5006;41.828;23.478;2023-04-30T05:08:08;90067.16;;;15.30;66.32
9935;BME280;5006;41.828;23.478;2023-04-30T05:09:14;90066.06;;;14.54;68.18
9935;BME280;5006;41.828;23.478;2023-04-30T05:10:20;90065.22;;;14.96;67.46
9935;BME280;5006;41.828;23.478;2023-04-30T05:11:26;90065.16;;;15.34;66.63
9935;BME280;5006;41.828;23.478;2023-04-30T05:12:31;90066.09;;;15.60;65.45
9935;BME280;5006;41.828;23.478;2023-04-30T05:13:38;90062.63;;;15.75;66.46
9935;BME280;5006;41.828;23.478;2023-04-30T05:14:43;90064.38;;;15.50;66.50
9935;BME280;5006;41.828;23.478;2023-04-30T05:15:50;90064.81;;;15.48;67.06
9935;BME280;5006;41.828;23.478;2023-04-30T05:16:56;90065.00;;;15.73;66.31
9935;BME280;5006;41.828;23.478;2023-04-30T05:18:02;90068.19;;;15.36;67.54
9935;BME280;5006;41.828;23.478;2023-04-30T05:19:08;90070.38;;;14.71;69.45
9935;BME280;5006;41.828;23.478;2023-04-30T05:20:16;90065.72;;;15.07;69.45
9935;BME280;5006;41.828;23.478;2023-04-30T05:21:21;90072.22;;;14.93;67.96
9935;BME280;5006;41.828;23.478;2023-04-30T05:22:30;90071.06;;;14.75;67.55
9935;BME280;5006;41.828;23.478;2023-04-30T05:23:35;90069.97;;;15.08;68.83
9935;BME280;5006;41.828;23.478;2023-04-30T05:24:41;90067.59;;;15.45;67.54
9935;BME280;5006;41.828;23.478;2023-04-30T05:25:50;90070.75;;;15.24;68.26
9935;BME280;5006;41.828;23.478;2023-04-30T05:26:56;90077.81;;;15.37;68.59
9935;BME280;5006;41.828;23.478;2023-04-30T05:28:02;90072.53;;;15.66;66.77
9935;BME280;5006;41.828;23.478;2023-04-30T05:29:07;90077.31;;;16.06;65.17
9935;BME280;5006;41.828;23.478;2023-04-30T05:30:14;90071.06;;;16.09;65.15
9935;BME280;5006;41.828;23.478;2023-04-30T05:31:19;90076.03;;;16.84;63.25
9935;BME280;5006;41.828;23.478;2023-04-30T05:32:25;90075.81;;;16.78;61.96
9935;BME280;5006;41.828;23.478;2023-04-30T05:33:31;90074.81;;;16.44;65.57
9935;BME280;5006;41.828;23.478;2023-04-30T05:34:38;90071.88;;;16.38;65.67
9935;BME280;5006;41.828;23.478;2023-04-30T05:35:44;90080.91;;;15.71;63.73
9935;BME280;5006;41.828;23.478;2023-04-30T05:36:51;90078.50;;;15.41;64.40
9935;BME280;5006;41.828;23.478;2023-04-30T05:37:57;90079.94;;;15.94;63.87
9935;BME280;5006;41.828;23.478;2023-04-30T05:39:02;90080.44;;;15.73;64.28
9935;BME280;5006;41.828;23.478;2023-04-30T05:40:09;90079.41;;;15.35;65.97
9935;BME280;5006;41.828;23.478;2023-04-30T05:41:15;90078.09;;;15.91;64.78
9935;BME280;5006;41.828;23.478;2023-04-30T05:42:21;90081.97;;;16.79;61.88
9935;BME280;5006;41.828;23.478;2023-04-30T05:43:25;90091.25;;;16.21;62.55
9935;BME280;5006;41.828;23.478;2023-04-30T05:44:32;90089.56;;;16.11;63.15
9935;BME280;5006;41.828;23.478;2023-04-30T05:45:37;90095.78;;;16.40;61.93
9935;BME280;5006;41.828;23.478;2023-04-30T05:46:43;90097.47;;;16.34;62.99
9935;BME280;5006;41.828;23.478;2023-04-30T05:47:48;90091.53;;;16.83;61.99
9935;BME280;5006;41.828;23.478;2023-04-30T05:48:54;90093.88;;;16.69;61.72
9935;BME280;5006;41.828;23.478;2023-04-30T05:49:58;90088.22;;;16.63;61.70
9935;BME280;5006;41.828;23.478;2023-04-30T05:51:06;90094.53;;;17.14;60.50
9935;BME280;5006;41.828;23.478;2023-04-30T05:52:11;90095.00;;;16.55;62.56
9935;BME280;5006;41.828;23.478;2023-04-30T05:53:19;90090.88;;;16.35;64.02
9935;BME280;5006;41.828;23.478;2023-04-30T05:54:24;90091.03;;;16.28;63.84
9935;BME280;5006;41.828;23.478;2023-04-30T05:55:30;90094.56;;;16.85;61.87
9935;BME280;5006;41.828;23.478;2023-04-30T05:56:35;90096.94;;;16.83;61.20
9935;BME280;5006;41.828;23.478;2023-04-30T05:57:41;90097.47;;;17.19;60.71
9935;BME280;5006;41.828;23.478;2023-04-30T05:58:46;90094.16;;;17.52;59.62